Cape Unity — 3ENK4 — position and weather

sailwx.info

Track history (hours):
 
Tides and Currents Weather Stations Pressure Air Temp Water Temp Dewpoint Dewpoint Depression Visibility Wind Speed Wind Dir Waves Ship Positions

Cape Unity

Last reported at 2017-Nov-24 03:48 UTC. Time now 2017-Dec-16 16:39 UTC.
Position N 36°49' W 075°43'.
Warning: this ship's position is 22 days out of date.

Length 289 m; draft 14.1 m.

Type: Cargo ship. MMSI: 355458000.

Date/timePositionNaut miles runAvg speedWind from/ knotsBaromVisibWave heightAir tempDewpointWater temp
2017-Nov-24 03:48N 36°49' W 075°43'510.6
2017-Nov-24 03:19N 36°51' W 075°49'311.0
2017-Nov-24 03:01N 36°53' W 075°53'510.5
2017-Nov-24 02:31N 36°56' W 075°58'4 8.7
2017-Nov-24 02:01N 36°60' W 076°01'4 8.8
2017-Nov-24 01:30N 37°03' W 076°05'7 9.0
2017-Nov-24 00:46N 37°09' W 076°09'4810.6
2017-Nov-23 20:15N 37°57' W 076°10'412.7
2017-Nov-23 19:57N 37°60' W 076°12'913.1
2017-Nov-23 19:17N 38°09' W 076°14'1113.5
2017-Nov-23 18:28N 38°19' W 076°18'1613.8
2017-Nov-23 17:20N 38°34' W 076°26'613.6
2017-Nov-23 16:55N 38°39' W 076°25'713.5
2017-Nov-23 16:25N 38°46' W 076°26'613.8
2017-Nov-23 16:00N 38°51' W 076°24'612.3
2017-Nov-23 15:30N 38°57' W 076°23'5 9.5
2017-Nov-23 15:00N 39°02' W 076°23'4 8.9
2017-Nov-23 14:30N 39°07' W 076°24'4 8.6
2017-Nov-23 14:00N 39°11' W 076°26'4 8.5
2017-Nov-23 13:30N 39°12' W 076°31'3 6.2
2017-Nov-23 13:00N 39°15' W 076°34'1 1.4
2017-Nov-23 12:30N 39°15' W 076°34'0 0.2
2017-Nov-23 12:00N 39°15' W 076°34'0 0.0
2017-Nov-23 11:30N 39°15' W 076°34'0 0.0
2017-Nov-23 11:00N 39°15' W 076°34'0 0.0
2017-Nov-23 10:30N 39°15' W 076°34'0 0.0
2017-Nov-23 10:00N 39°15' W 076°34'0 0.0
2017-Nov-23 09:30N 39°15' W 076°34'0 0.0
2017-Nov-23 09:00N 39°15' W 076°34'0 0.0
2017-Nov-23 08:30N 39°15' W 076°34'0 0.0
2017-Nov-23 08:00N 39°15' W 076°34'0 0.0
2017-Nov-23 07:30N 39°15' W 076°34'0 0.0
2017-Nov-23 07:00N 39°15' W 076°34'0 0.0
2017-Nov-23 06:30N 39°15' W 076°34'0 0.0
2017-Nov-23 06:00N 39°15' W 076°34'0 0.0
2017-Nov-23 05:30N 39°15' W 076°34'0 0.0
2017-Nov-23 05:00N 39°15' W 076°34'0 0.0
2017-Nov-23 04:30N 39°15' W 076°34'0 0.0
2017-Nov-23 04:00N 39°15' W 076°34'0 0.0
2017-Nov-23 03:30N 39°15' W 076°34'0 0.0
2017-Nov-23 03:00N 39°15' W 076°34'0 0.0
2017-Nov-23 02:30N 39°15' W 076°34'0 0.0
2017-Nov-23 02:00N 39°15' W 076°34'0 0.0
2017-Nov-23 01:30N 39°15' W 076°34'0 0.0
2017-Nov-23 01:00N 39°15' W 076°34'0 0.0
2017-Nov-23 00:30N 39°15' W 076°34'0 0.0
2017-Nov-23 00:00N 39°15' W 076°34'0 0.0
2017-Nov-22 23:30N 39°15' W 076°34'0 0.0
2017-Nov-22 23:00N 39°15' W 076°34'0 0.0
2017-Nov-22 22:30N 39°15' W 076°34'0 0.0
2017-Nov-22 22:00N 39°15' W 076°34'0 0.0
2017-Nov-22 21:27N 39°15' W 076°34'0 0.0
2017-Nov-22 21:00N 39°15' W 076°34'0 0.0
2017-Nov-22 20:30N 39°15' W 076°34'0 0.0
2017-Nov-22 20:00N 39°15' W 076°34'0 0.0
2017-Nov-22 19:30N 39°15' W 076°34'  
2017-Nov-20 00:30N 38°55' W 076°24'0 0.0
2017-Nov-20 00:00N 38°55' W 076°24'0 0.0
2017-Nov-19 23:30N 38°55' W 076°24'0 0.0
2017-Nov-19 23:00N 38°55' W 076°24'0 0.1
2017-Nov-19 22:30N 38°55' W 076°24'0 0.0
2017-Nov-19 22:00N 38°55' W 076°24'0 0.0
2017-Nov-19 21:30N 38°55' W 076°24'0 0.0
2017-Nov-19 21:00N 38°55' W 076°24'0 0.0
2017-Nov-19 20:30N 38°55' W 076°24'0 0.0
2017-Nov-19 20:00N 38°55' W 076°24'0 0.1
2017-Nov-19 19:30N 38°55' W 076°24'0 0.1
2017-Nov-19 19:00N 38°55' W 076°24'0 0.0
2017-Nov-19 18:30N 38°55' W 076°24'0 0.0
2017-Nov-19 18:00N 38°55' W 076°24'0 0.0
2017-Nov-19 17:27N 38°55' W 076°24'0 0.0
2017-Nov-19 17:00N 38°55' W 076°24'0 0.0
2017-Nov-19 16:30N 38°55' W 076°24'0 0.0
2017-Nov-19 16:00N 38°55' W 076°24'0 0.0
2017-Nov-19 15:30N 38°55' W 076°24'0 0.0
2017-Nov-19 15:00N 38°55' W 076°24'0 0.0
2017-Nov-19 14:30N 38°55' W 076°24'0 0.1
2017-Nov-19 14:00N 38°55' W 076°24'0 0.0
2017-Nov-19 13:30N 38°55' W 076°24'0 0.0
2017-Nov-19 13:00N 38°55' W 076°24'0 0.0
2017-Nov-19 12:30N 38°55' W 076°24'0 0.1
2017-Nov-19 12:00N 38°55' W 076°24'0 0.1
2017-Nov-19 11:30N 38°55' W 076°24'0 0.2
2017-Nov-19 11:00N 38°55' W 076°24'0 0.1
2017-Nov-19 10:30N 38°55' W 076°24'0 0.2
2017-Nov-19 10:00N 38°55' W 076°24'0 0.0
2017-Nov-19 09:30N 38°55' W 076°24'0 0.0
2017-Nov-19 09:00N 38°55' W 076°24'0 0.0
2017-Nov-19 08:30N 38°55' W 076°24'0 0.1
2017-Nov-19 08:00N 38°55' W 076°24'0 0.1
2017-Nov-19 07:27N 38°55' W 076°24'0 0.1
2017-Nov-19 07:00N 38°55' W 076°24'0 0.1
2017-Nov-19 06:30N 38°55' W 076°24'0 0.0
2017-Nov-19 06:00N 38°55' W 076°24'0 0.1
2017-Nov-19 05:30N 38°55' W 076°24'0 0.0
2017-Nov-19 05:00N 38°55' W 076°24'0 0.0
2017-Nov-19 04:30N 38°55' W 076°24'0 0.0
2017-Nov-19 04:00N 38°55' W 076°24'0 0.1
2017-Nov-19 03:30N 38°55' W 076°24'0 0.1
2017-Nov-19 03:00N 38°55' W 076°24'0 0.0
2017-Nov-19 02:30N 38°55' W 076°24'0 0.0
2017-Nov-19 02:00N 38°55' W 076°24'0 0.1
2017-Nov-19 01:27N 38°55' W 076°24'0 0.0
2017-Nov-19 01:00N 38°55' W 076°24'0 0.0
2017-Nov-19 00:30N 38°55' W 076°24'0 0.0
2017-Nov-19 00:00N 38°55' W 076°24'0 0.0
2017-Nov-18 23:30N 38°55' W 076°24'0 0.0
2017-Nov-18 23:00N 38°55' W 076°24'0 0.0
2017-Nov-18 22:30N 38°55' W 076°24'0 0.0
2017-Nov-18 22:00N 38°55' W 076°24'0 0.0
2017-Nov-18 21:30N 38°55' W 076°24'0 0.0
2017-Nov-18 21:00N 38°55' W 076°24'0 0.1
2017-Nov-18 20:30N 38°55' W 076°24'0 0.0
2017-Nov-18 20:00N 38°55' W 076°24'0 0.0
2017-Nov-18 19:30N 38°55' W 076°24'0 0.0
2017-Nov-18 19:00N 38°55' W 076°24'0 0.0
2017-Nov-18 18:30N 38°55' W 076°24'0 0.0
2017-Nov-18 18:00N 38°55' W 076°24'0 0.0
2017-Nov-18 17:27N 38°55' W 076°24'0 0.0
2017-Nov-18 17:00N 38°55' W 076°24'0 0.0
2017-Nov-18 16:30N 38°55' W 076°24'0 0.0
2017-Nov-18 16:00N 38°55' W 076°24'0 0.0
2017-Nov-18 15:30N 38°55' W 076°24'0 0.0
2017-Nov-18 15:00N 38°55' W 076°24'0 0.0
2017-Nov-18 14:30N 38°55' W 076°24'0 0.0
2017-Nov-18 14:00N 38°55' W 076°24'0 0.0
2017-Nov-18 13:30N 38°55' W 076°24'0 0.0
2017-Nov-18 13:00N 38°55' W 076°24'0 0.0
2017-Nov-18 12:30N 38°55' W 076°24'0 0.0
2017-Nov-18 12:00N 38°55' W 076°24'0 0.0
2017-Nov-18 11:30N 38°55' W 076°24'0 0.0
2017-Nov-18 11:00N 38°55' W 076°24'0 0.0
2017-Nov-18 10:30N 38°55' W 076°24'0 0.0
2017-Nov-18 10:00N 38°55' W 076°24'0 0.0
2017-Nov-18 09:24N 38°55' W 076°24'0 0.0
2017-Nov-18 09:00N 38°55' W 076°24'0 0.5
2017-Nov-18 08:31N 38°55' W 076°24'0 0.9
2017-Nov-18 08:00N 38°55' W 076°24'4 7.7
2017-Nov-18 07:30N 38°51' W 076°24'714.5
2017-Nov-18 07:00N 38°44' W 076°26'714.0
2017-Nov-18 06:30N 38°37' W 076°26'713.9
2017-Nov-18 06:00N 38°30' W 076°24'1914.5
2017-Nov-18 04:40N 38°12' W 076°14'614.4
2017-Nov-18 04:13N 38°06' W 076°13'514.8
2017-Nov-18 03:54N 38°01' W 076°13'5513.5
2017-Nov-17 23:51N 37°07' W 076°07'514.8
2017-Nov-17 23:30N 37°02' W 076°04'612.3
2017-Nov-17 23:01N 36°57' W 075°59'5 9.2
2017-Nov-17 22:30N 36°55' W 075°54'4 8.5
2017-Nov-17 22:00N 36°52' W 075°51'3 5.9
2017-Nov-17 21:29N 36°50' W 075°47'2 5.1
2017-Nov-17 21:00N 36°49' W 075°45'3 5.3
2017-Nov-17 20:30N 36°49' W 075°41'2 3.4
2017-Nov-17 19:59N 36°49' W 075°43'  
Track history (hours):
 
Tides and Currents Weather Stations Pressure Air Temp Water Temp Dewpoint Dewpoint Depression Visibility Wind Speed Wind Dir Waves Ship Positions

Cape Unity

Last reported at 2017-Nov-24 03:48 UTC. Time now 2017-Dec-16 16:39 UTC.
Position N 36°49' W 075°43'.
Warning: this ship's position is 22 days out of date.

Length 289 m; draft 14.1 m.

Type: Cargo ship. MMSI: 355458000.

Date/timePositionNaut miles runAvg speedWind from/ knotsBaromVisibWave heightAir tempDewpointWater temp
2017-Nov-24 03:48N 36°49' W 075°43'510.6
2017-Nov-24 03:19N 36°51' W 075°49'311.0
2017-Nov-24 03:01N 36°53' W 075°53'510.5
2017-Nov-24 02:31N 36°56' W 075°58'4 8.7
2017-Nov-24 02:01N 36°60' W 076°01'4 8.8
2017-Nov-24 01:30N 37°03' W 076°05'7 9.0
2017-Nov-24 00:46N 37°09' W 076°09'4810.6
2017-Nov-23 20:15N 37°57' W 076°10'412.7
2017-Nov-23 19:57N 37°60' W 076°12'913.1
2017-Nov-23 19:17N 38°09' W 076°14'1113.5
2017-Nov-23 18:28N 38°19' W 076°18'1613.8
2017-Nov-23 17:20N 38°34' W 076°26'613.6
2017-Nov-23 16:55N 38°39' W 076°25'713.5
2017-Nov-23 16:25N 38°46' W 076°26'613.8
2017-Nov-23 16:00N 38°51' W 076°24'612.3
2017-Nov-23 15:30N 38°57' W 076°23'5 9.5
2017-Nov-23 15:00N 39°02' W 076°23'4 8.9
2017-Nov-23 14:30N 39°07' W 076°24'4 8.6
2017-Nov-23 14:00N 39°11' W 076°26'4 8.5
2017-Nov-23 13:30N 39°12' W 076°31'3 6.2
2017-Nov-23 13:00N 39°15' W 076°34'1 1.4
2017-Nov-23 12:30N 39°15' W 076°34'0 0.2
2017-Nov-23 12:00N 39°15' W 076°34'0 0.0
2017-Nov-23 11:30N 39°15' W 076°34'0 0.0
2017-Nov-23 11:00N 39°15' W 076°34'0 0.0
2017-Nov-23 10:30N 39°15' W 076°34'0 0.0
2017-Nov-23 10:00N 39°15' W 076°34'0 0.0
2017-Nov-23 09:30N 39°15' W 076°34'0 0.0
2017-Nov-23 09:00N 39°15' W 076°34'0 0.0
2017-Nov-23 08:30N 39°15' W 076°34'0 0.0
2017-Nov-23 08:00N 39°15' W 076°34'0 0.0
2017-Nov-23 07:30N 39°15' W 076°34'0 0.0
2017-Nov-23 07:00N 39°15' W 076°34'0 0.0
2017-Nov-23 06:30N 39°15' W 076°34'0 0.0
2017-Nov-23 06:00N 39°15' W 076°34'0 0.0
2017-Nov-23 05:30N 39°15' W 076°34'0 0.0
2017-Nov-23 05:00N 39°15' W 076°34'0 0.0
2017-Nov-23 04:30N 39°15' W 076°34'0 0.0
2017-Nov-23 04:00N 39°15' W 076°34'0 0.0
2017-Nov-23 03:30N 39°15' W 076°34'0 0.0
2017-Nov-23 03:00N 39°15' W 076°34'0 0.0
2017-Nov-23 02:30N 39°15' W 076°34'0 0.0
2017-Nov-23 02:00N 39°15' W 076°34'0 0.0
2017-Nov-23 01:30N 39°15' W 076°34'0 0.0
2017-Nov-23 01:00N 39°15' W 076°34'0 0.0
2017-Nov-23 00:30N 39°15' W 076°34'0 0.0
2017-Nov-23 00:00N 39°15' W 076°34'0 0.0
2017-Nov-22 23:30N 39°15' W 076°34'0 0.0
2017-Nov-22 23:00N 39°15' W 076°34'0 0.0
2017-Nov-22 22:30N 39°15' W 076°34'0 0.0
2017-Nov-22 22:00N 39°15' W 076°34'0 0.0
2017-Nov-22 21:27N 39°15' W 076°34'0 0.0
2017-Nov-22 21:00N 39°15' W 076°34'0 0.0
2017-Nov-22 20:30N 39°15' W 076°34'0 0.0
2017-Nov-22 20:00N 39°15' W 076°34'0 0.0
2017-Nov-22 19:30N 39°15' W 076°34'  
2017-Nov-20 00:30N 38°55' W 076°24'0 0.0
2017-Nov-20 00:00N 38°55' W 076°24'0 0.0
2017-Nov-19 23:30N 38°55' W 076°24'0 0.0
2017-Nov-19 23:00N 38°55' W 076°24'0 0.1
2017-Nov-19 22:30N 38°55' W 076°24'0 0.0
2017-Nov-19 22:00N 38°55' W 076°24'0 0.0
2017-Nov-19 21:30N 38°55' W 076°24'0 0.0
2017-Nov-19 21:00N 38°55' W 076°24'0 0.0
2017-Nov-19 20:30N 38°55' W 076°24'0 0.0
2017-Nov-19 20:00N 38°55' W 076°24'0 0.1
2017-Nov-19 19:30N 38°55' W 076°24'0 0.1
2017-Nov-19 19:00N 38°55' W 076°24'0 0.0
2017-Nov-19 18:30N 38°55' W 076°24'0 0.0
2017-Nov-19 18:00N 38°55' W 076°24'0 0.0
2017-Nov-19 17:27N 38°55' W 076°24'0 0.0
2017-Nov-19 17:00N 38°55' W 076°24'0 0.0
2017-Nov-19 16:30N 38°55' W 076°24'0 0.0
2017-Nov-19 16:00N 38°55' W 076°24'0 0.0
2017-Nov-19 15:30N 38°55' W 076°24'0 0.0
2017-Nov-19 15:00N 38°55' W 076°24'0 0.0
2017-Nov-19 14:30N 38°55' W 076°24'0 0.1
2017-Nov-19 14:00N 38°55' W 076°24'0 0.0
2017-Nov-19 13:30N 38°55' W 076°24'0 0.0
2017-Nov-19 13:00N 38°55' W 076°24'0 0.0
2017-Nov-19 12:30N 38°55' W 076°24'0 0.1
2017-Nov-19 12:00N 38°55' W 076°24'0 0.1
2017-Nov-19 11:30N 38°55' W 076°24'0 0.2
2017-Nov-19 11:00N 38°55' W 076°24'0 0.1
2017-Nov-19 10:30N 38°55' W 076°24'0 0.2
2017-Nov-19 10:00N 38°55' W 076°24'0 0.0
2017-Nov-19 09:30N 38°55' W 076°24'0 0.0
2017-Nov-19 09:00N 38°55' W 076°24'0 0.0
2017-Nov-19 08:30N 38°55' W 076°24'0 0.1
2017-Nov-19 08:00N 38°55' W 076°24'0 0.1
2017-Nov-19 07:27N 38°55' W 076°24'0 0.1
2017-Nov-19 07:00N 38°55' W 076°24'0 0.1
2017-Nov-19 06:30N 38°55' W 076°24'0 0.0
2017-Nov-19 06:00N 38°55' W 076°24'0 0.1
2017-Nov-19 05:30N 38°55' W 076°24'0 0.0
2017-Nov-19 05:00N 38°55' W 076°24'0 0.0
2017-Nov-19 04:30N 38°55' W 076°24'0 0.0
2017-Nov-19 04:00N 38°55' W 076°24'0 0.1
2017-Nov-19 03:30N 38°55' W 076°24'0 0.1
2017-Nov-19 03:00N 38°55' W 076°24'0 0.0
2017-Nov-19 02:30N 38°55' W 076°24'0 0.0
2017-Nov-19 02:00N 38°55' W 076°24'0 0.1
2017-Nov-19 01:27N 38°55' W 076°24'0 0.0
2017-Nov-19 01:00N 38°55' W 076°24'0 0.0
2017-Nov-19 00:30N 38°55' W 076°24'0 0.0
2017-Nov-19 00:00N 38°55' W 076°24'0 0.0
2017-Nov-18 23:30N 38°55' W 076°24'0 0.0
2017-Nov-18 23:00N 38°55' W 076°24'0 0.0
2017-Nov-18 22:30N 38°55' W 076°24'0 0.0
2017-Nov-18 22:00N 38°55' W 076°24'0 0.0
2017-Nov-18 21:30N 38°55' W 076°24'0 0.0
2017-Nov-18 21:00N 38°55' W 076°24'0 0.1
2017-Nov-18 20:30N 38°55' W 076°24'0 0.0
2017-Nov-18 20:00N 38°55' W 076°24'0 0.0
2017-Nov-18 19:30N 38°55' W 076°24'0 0.0
2017-Nov-18 19:00N 38°55' W 076°24'0 0.0
2017-Nov-18 18:30N 38°55' W 076°24'0 0.0
2017-Nov-18 18:00N 38°55' W 076°24'0 0.0
2017-Nov-18 17:27N 38°55' W 076°24'0 0.0
2017-Nov-18 17:00N 38°55' W 076°24'0 0.0
2017-Nov-18 16:30N 38°55' W 076°24'0 0.0
2017-Nov-18 16:00N 38°55' W 076°24'0 0.0
2017-Nov-18 15:30N 38°55' W 076°24'0 0.0
2017-Nov-18 15:00N 38°55' W 076°24'0 0.0
2017-Nov-18 14:30N 38°55' W 076°24'0 0.0
2017-Nov-18 14:00N 38°55' W 076°24'0 0.0
2017-Nov-18 13:30N 38°55' W 076°24'0 0.0
2017-Nov-18 13:00N 38°55' W 076°24'0 0.0
2017-Nov-18 12:30N 38°55' W 076°24'0 0.0
2017-Nov-18 12:00N 38°55' W 076°24'0 0.0
2017-Nov-18 11:30N 38°55' W 076°24'0 0.0
2017-Nov-18 11:00N 38°55' W 076°24'0 0.0
2017-Nov-18 10:30N 38°55' W 076°24'0 0.0
2017-Nov-18 10:00N 38°55' W 076°24'0 0.0
2017-Nov-18 09:24N 38°55' W 076°24'0 0.0
2017-Nov-18 09:00N 38°55' W 076°24'0 0.5
2017-Nov-18 08:31N 38°55' W 076°24'0 0.9
2017-Nov-18 08:00N 38°55' W 076°24'4 7.7
2017-Nov-18 07:30N 38°51' W 076°24'714.5
2017-Nov-18 07:00N 38°44' W 076°26'714.0
2017-Nov-18 06:30N 38°37' W 076°26'713.9
2017-Nov-18 06:00N 38°30' W 076°24'1914.5
2017-Nov-18 04:40N 38°12' W 076°14'614.4
2017-Nov-18 04:13N 38°06' W 076°13'514.8
2017-Nov-18 03:54N 38°01' W 076°13'5513.5
2017-Nov-17 23:51N 37°07' W 076°07'514.8
2017-Nov-17 23:30N 37°02' W 076°04'612.3
2017-Nov-17 23:01N 36°57' W 075°59'5 9.2
2017-Nov-17 22:30N 36°55' W 075°54'4 8.5
2017-Nov-17 22:00N 36°52' W 075°51'3 5.9
2017-Nov-17 21:29N 36°50' W 075°47'2 5.1
2017-Nov-17 21:00N 36°49' W 075°45'3 5.3
2017-Nov-17 20:30N 36°49' W 075°41'2 3.4
2017-Nov-17 19:59N 36°49' W 075°43'  

Dump ship's entire track history